createdAt,value
2019-04-01T00:01:47.073Z,3.50
2019-04-01T00:04:18.924Z,3.40
2019-04-01T00:06:50.221Z,3.40
2019-04-01T00:09:22.233Z,3.40
2019-04-01T00:11:55.473Z,3.40
2019-04-01T00:14:27.510Z,3.50
2019-04-01T00:16:59.447Z,3.50
2019-04-01T00:19:30.886Z,3.50
2019-04-01T00:22:03.024Z,3.50
2019-04-01T00:24:34.577Z,3.50
2019-04-01T00:27:06.450Z,3.50
2019-04-01T00:29:37.797Z,3.50
2019-04-01T00:32:09.439Z,3.60
2019-04-01T00:34:40.688Z,3.50
2019-04-01T00:37:12.315Z,3.50
2019-04-01T00:39:45.302Z,3.50
2019-04-01T00:42:24.791Z,3.40
2019-04-01T00:44:55.811Z,3.40
2019-04-01T00:47:27.431Z,3.30
2019-04-01T00:49:59.122Z,3.30
2019-04-01T00:52:30.462Z,3.20
2019-04-01T00:55:02.187Z,3.10
2019-04-01T00:57:33.209Z,3.10
2019-04-01T01:00:06.603Z,3.00
2019-04-01T01:02:37.943Z,3.00
2019-04-01T01:05:09.632Z,2.90
2019-04-01T01:07:41.214Z,2.90
2019-04-01T01:10:12.946Z,2.80
2019-04-01T01:12:44.207Z,2.80
2019-04-01T01:15:17.256Z,2.80
2019-04-01T01:17:48.490Z,2.70
2019-04-01T01:20:20.097Z,2.70
2019-04-01T01:22:52.070Z,2.50
2019-04-01T01:25:24.266Z,2.50
2019-04-01T01:27:55.573Z,2.40
2019-04-01T01:30:27.228Z,2.40
2019-04-01T01:32:58.992Z,2.40
2019-04-01T01:35:30.356Z,2.30
2019-04-01T01:38:01.912Z,2.30
2019-04-01T01:40:33.304Z,2.30
2019-04-01T01:43:04.337Z,2.10
2019-04-01T01:45:35.956Z,2.10
2019-04-01T01:48:07.362Z,2.10
2019-04-01T01:50:38.926Z,2.10
2019-04-01T01:53:10.330Z,2.10
2019-04-01T01:55:41.935Z,2.10
2019-04-01T01:58:13.579Z,2.10
2019-04-01T02:00:45.094Z,2.00
2019-04-01T02:03:18.032Z,1.90
2019-04-01T02:05:50.543Z,1.90
2019-04-01T02:08:21.842Z,1.90
2019-04-01T02:10:53.142Z,1.90
2019-04-01T02:13:24.964Z,1.80
2019-04-01T02:15:56.611Z,1.80
2019-04-01T02:18:27.915Z,1.80
2019-04-01T02:20:59.675Z,1.70
2019-04-01T02:23:30.989Z,1.70
2019-04-01T02:26:02.350Z,1.60
2019-04-01T02:28:34.061Z,1.60
2019-04-01T02:31:05.689Z,1.60
2019-04-01T02:33:37.460Z,1.60
2019-04-01T02:36:09.051Z,1.60
2019-04-01T02:38:40.645Z,1.60
2019-04-01T02:41:12.228Z,1.50
2019-04-01T02:43:44.092Z,1.50
2019-04-01T02:46:16.152Z,1.50
2019-04-01T02:48:48.004Z,1.50
2019-04-01T02:51:19.077Z,1.50
2019-04-01T02:53:50.810Z,1.40
2019-04-01T02:56:23.030Z,1.40
2019-04-01T02:58:54.838Z,1.30
2019-04-01T03:01:26.841Z,1.30
2019-04-01T03:03:58.119Z,1.20
2019-04-01T03:06:29.279Z,1.20
2019-04-01T03:09:00.288Z,1.20
2019-04-01T03:11:33.563Z,1.20
2019-04-01T03:14:05.823Z,1.20
2019-04-01T03:16:37.282Z,1.10
2019-04-01T03:19:08.710Z,1.00
2019-04-01T03:21:40.538Z,1.10
2019-04-01T03:24:12.437Z,1.10
2019-04-01T03:26:44.249Z,1.10
2019-04-01T03:29:15.568Z,1.10
2019-04-01T03:31:47.992Z,1.10
2019-04-01T03:34:19.839Z,1.10
2019-04-01T03:36:51.460Z,1.10
2019-04-01T03:39:23.157Z,1.00
2019-04-01T03:41:54.772Z,1.00
2019-04-01T03:44:26.685Z,1.00
2019-04-01T03:46:58.950Z,0.90
2019-04-01T03:49:30.512Z,1.00
2019-04-01T03:52:01.945Z,1.00
2019-04-01T03:54:33.591Z,0.90
2019-04-01T03:57:05.484Z,0.90
2019-04-01T03:59:37.521Z,0.80
2019-04-01T04:02:09.134Z,0.90
2019-04-01T04:04:40.690Z,0.80
2019-04-01T04:07:12.296Z,0.80
2019-04-01T04:09:44.041Z,0.70
2019-04-01T04:12:16.208Z,0.70
2019-04-01T04:14:51.265Z,0.70
2019-04-01T04:17:21.007Z,0.70
2019-04-01T04:19:52.655Z,0.70
2019-04-01T04:22:23.966Z,0.60
2019-04-01T04:24:55.425Z,0.60
2019-04-01T04:27:26.719Z,0.60
2019-04-01T04:29:58.358Z,0.60
2019-04-01T04:32:29.923Z,0.60
2019-04-01T04:35:01.873Z,0.60
2019-04-01T04:37:34.237Z,0.50
2019-04-01T04:40:06.318Z,0.50
2019-04-01T04:42:37.590Z,0.50
2019-04-01T04:45:10.007Z,0.50
2019-04-01T04:47:41.575Z,0.50
2019-04-01T04:50:13.458Z,0.50
2019-04-01T04:52:45.036Z,0.50
2019-04-01T04:55:16.642Z,0.50
2019-04-01T04:57:48.144Z,0.60
2019-04-01T05:00:19.992Z,0.60
2019-04-01T05:02:51.843Z,0.60
2019-04-01T05:05:23.489Z,0.60
2019-04-01T05:07:55.392Z,0.70
2019-04-01T05:10:27.028Z,0.80
2019-04-01T05:13:04.516Z,1.00
2019-04-01T05:15:38.552Z,1.20
2019-04-01T05:18:10.175Z,1.40
2019-04-01T05:20:42.773Z,1.70
2019-04-01T05:23:16.425Z,1.90
2019-04-01T05:25:48.619Z,2.20
2019-04-01T05:28:21.351Z,2.50
2019-04-01T05:30:56.319Z,2.90
2019-04-01T05:33:30.365Z,3.40
2019-04-01T05:36:03.027Z,3.90
2019-04-01T05:38:35.215Z,4.30
2019-04-01T05:41:07.645Z,4.80
2019-04-01T05:43:39.325Z,5.40
2019-04-01T05:46:10.926Z,6.20
2019-04-01T05:48:42.930Z,7.10
2019-04-01T05:51:14.651Z,7.90
2019-04-01T05:53:46.935Z,8.80
2019-04-01T05:56:19.582Z,9.40
2019-04-01T05:58:51.670Z,9.90
2019-04-01T06:01:28.056Z,10.30
2019-04-01T06:03:59.728Z,10.90
2019-04-01T06:06:31.163Z,10.80
2019-04-01T06:09:04.766Z,10.60
2019-04-01T06:11:37.664Z,10.70
2019-04-01T06:15:11.590Z,10.60
2019-04-01T06:17:43.616Z,10.70
2019-04-01T06:20:15.539Z,11.00
2019-04-01T06:22:47.145Z,11.10
2019-04-01T06:25:18.474Z,11.20
2019-04-01T06:27:49.847Z,11.40
2019-04-01T06:30:21.162Z,12.00
2019-04-01T06:32:52.970Z,12.30
2019-04-01T06:35:24.984Z,12.40
2019-04-01T06:37:56.010Z,12.40
2019-04-01T06:40:28.596Z,12.20
2019-04-01T06:43:00.654Z,12.00
2019-04-01T06:45:32.024Z,11.90
2019-04-01T06:48:03.696Z,11.80
2019-04-01T06:50:37.084Z,10.90
2019-04-01T06:53:08.712Z,10.50
2019-04-01T06:55:40.466Z,10.40
2019-04-01T06:58:12.286Z,10.50
2019-04-01T07:00:43.636Z,10.70
2019-04-01T07:03:18.349Z,10.80
2019-04-01T07:05:48.151Z,10.60
2019-04-01T07:08:19.869Z,10.80
2019-04-01T07:10:51.575Z,11.20
2019-04-01T07:13:23.742Z,11.10
2019-04-01T07:15:56.455Z,11.00
2019-04-01T07:18:28.224Z,10.90
2019-04-01T07:21:00.169Z,9.80
2019-04-01T07:23:32.423Z,9.60
2019-04-01T07:26:04.063Z,10.00
2019-04-01T07:28:36.018Z,10.50
2019-04-01T07:31:07.762Z,10.30
2019-04-01T07:33:38.937Z,10.00
2019-04-01T07:36:10.384Z,10.60
2019-04-01T07:38:42.428Z,10.50
2019-04-01T07:41:13.501Z,10.20
2019-04-01T07:43:45.201Z,10.10
2019-04-01T07:46:16.629Z,9.70
2019-04-01T07:48:47.786Z,9.50
2019-04-01T07:51:18.780Z,10.20
2019-04-01T07:53:49.882Z,10.80
2019-04-01T07:56:21.866Z,11.30
2019-04-01T07:58:53.647Z,11.90
2019-04-01T08:01:25.033Z,12.20
2019-04-01T08:03:56.560Z,12.00
2019-04-01T08:06:27.918Z,11.70
2019-04-01T08:08:59.903Z,11.30
2019-04-01T08:11:31.393Z,11.70
2019-04-01T08:14:03.602Z,12.10
2019-04-01T08:16:34.721Z,12.60
2019-04-01T08:19:06.153Z,13.20
2019-04-01T08:21:37.565Z,13.90
2019-04-01T08:24:09.354Z,13.40
2019-04-01T08:26:40.540Z,13.00
2019-04-01T08:29:12.226Z,13.20
2019-04-01T08:31:43.814Z,13.70
2019-04-01T08:34:15.918Z,13.80
2019-04-01T08:36:47.081Z,13.50
2019-04-01T08:39:18.424Z,12.80
2019-04-01T08:41:49.862Z,12.80
2019-04-01T08:44:21.754Z,13.80
2019-04-01T08:46:53.929Z,13.70
2019-04-01T08:49:27.110Z,13.20
2019-04-01T08:51:58.513Z,13.30
2019-04-01T08:54:29.780Z,13.80
2019-04-01T08:57:00.990Z,14.10
2019-04-01T08:59:32.274Z,14.20
2019-04-01T09:02:16.994Z,14.20
2019-04-01T09:04:37.146Z,14.30
2019-04-01T09:07:08.818Z,14.30
2019-04-01T09:09:41.478Z,13.60
2019-04-01T09:12:13.966Z,12.80
2019-04-01T09:14:46.234Z,12.60
2019-04-01T09:17:17.694Z,11.80
2019-04-01T09:19:48.705Z,11.70
2019-04-01T09:22:20.573Z,11.80
2019-04-01T09:24:52.231Z,11.20
2019-04-01T09:27:24.090Z,11.20
2019-04-01T09:29:56.044Z,11.00
2019-04-01T09:32:27.184Z,11.00
2019-04-01T09:34:58.503Z,11.30
2019-04-01T09:37:29.747Z,11.20
2019-04-01T09:40:01.020Z,11.50
2019-04-01T09:42:33.192Z,12.00
2019-04-01T09:45:05.381Z,11.90
2019-04-01T09:47:36.876Z,12.00
2019-04-01T09:50:08.370Z,12.50
2019-04-01T09:52:39.983Z,12.80
2019-04-01T09:55:11.250Z,12.20
2019-04-01T09:57:42.790Z,12.40
2019-04-01T10:00:15.353Z,12.70
2019-04-01T10:02:46.898Z,12.40
2019-04-01T10:05:20.029Z,12.30
2019-04-01T10:07:53.528Z,11.60
2019-04-01T10:10:25.420Z,11.30
2019-04-01T10:12:57.559Z,11.70
2019-04-01T10:15:29.357Z,11.80
2019-04-01T10:18:01.389Z,11.50
2019-04-01T10:20:32.740Z,11.10
2019-04-01T10:23:04.487Z,11.80
2019-04-01T10:25:35.984Z,12.60
2019-04-01T10:28:07.349Z,12.80
2019-04-01T10:30:39.253Z,12.80
2019-04-01T10:33:10.894Z,13.10
2019-04-01T10:35:43.368Z,13.00
2019-04-01T10:38:15.488Z,12.70
2019-04-01T10:40:47.086Z,12.80
2019-04-01T10:43:18.597Z,12.90
2019-04-01T10:45:49.970Z,12.30
2019-04-01T10:48:22.111Z,11.80
2019-04-01T10:50:53.606Z,11.20
2019-04-01T10:53:24.963Z,10.80
2019-04-01T10:55:56.270Z,10.50
2019-04-01T10:58:27.337Z,9.70
2019-04-01T11:00:58.714Z,9.30
2019-04-01T11:03:30.121Z,9.50
2019-04-01T11:06:01.401Z,9.60
2019-04-01T11:08:33.280Z,9.70
2019-04-01T11:11:04.996Z,9.60
2019-04-01T11:13:36.879Z,9.60
2019-04-01T11:16:08.715Z,9.30
2019-04-01T11:18:40.924Z,9.10
2019-04-01T11:21:12.882Z,9.20
2019-04-01T11:23:44.155Z,9.10
2019-04-01T11:26:15.160Z,9.00
2019-04-01T11:28:46.579Z,9.20
2019-04-01T11:31:18.756Z,9.20
2019-04-01T11:33:50.432Z,9.10
2019-04-01T11:36:21.803Z,8.80
2019-04-01T11:38:53.255Z,8.90
2019-04-01T11:41:24.349Z,9.00
2019-04-01T11:43:56.450Z,9.10
2019-04-01T11:46:28.470Z,9.00
2019-04-01T11:48:59.897Z,8.70
2019-04-01T11:51:33.148Z,8.70
2019-04-01T11:54:08.022Z,8.70
2019-04-01T11:56:38.442Z,8.70
2019-04-01T11:59:09.819Z,8.70
2019-04-01T12:01:41.694Z,8.80
2019-04-01T12:04:13.291Z,9.00
2019-04-01T12:06:45.255Z,9.10
2019-04-01T12:09:16.846Z,9.10
2019-04-01T12:11:47.837Z,9.00
2019-04-01T12:14:19.538Z,8.90
2019-04-01T12:16:51.408Z,8.90
2019-04-01T12:19:22.700Z,9.10
2019-04-01T12:21:54.003Z,9.10
2019-04-01T12:24:26.054Z,9.10
2019-04-01T12:26:57.673Z,9.20
2019-04-01T12:29:28.942Z,9.20
2019-04-01T12:32:00.503Z,9.10
2019-04-01T12:34:33.762Z,9.20
2019-04-01T12:37:06.177Z,9.20
2019-04-01T12:39:37.822Z,9.20
2019-04-01T12:42:08.879Z,9.20
2019-04-01T12:44:41.579Z,9.20
2019-04-01T12:47:13.907Z,9.30
2019-04-01T12:49:45.498Z,9.40
2019-04-01T12:52:18.054Z,9.30
2019-04-01T12:54:49.726Z,9.40
2019-04-01T12:57:21.427Z,9.30
2019-04-01T12:59:53.606Z,9.40
2019-04-01T13:02:25.546Z,9.40
2019-04-01T13:04:57.316Z,9.30
2019-04-01T13:07:29.088Z,9.40
2019-04-01T13:10:01.059Z,9.40
2019-04-01T13:12:32.684Z,9.50
2019-04-01T13:15:04.611Z,9.60
2019-04-01T13:17:35.888Z,9.60
2019-04-01T13:20:08.560Z,9.60
2019-04-01T13:22:40.317Z,9.60
2019-04-01T13:25:12.029Z,9.60
2019-04-01T13:27:44.175Z,9.70
2019-04-01T13:30:16.108Z,9.70
2019-04-01T13:32:48.950Z,9.60
2019-04-01T13:35:21.005Z,9.70
2019-04-01T13:37:53.062Z,9.90
2019-04-01T13:40:24.494Z,9.90
2019-04-01T13:42:55.806Z,9.90
2019-04-01T13:45:31.568Z,10.00
2019-04-01T13:48:01.110Z,9.90
2019-04-01T13:50:33.594Z,9.90
2019-04-01T13:53:04.850Z,10.00
2019-04-01T13:55:37.452Z,9.90
2019-04-01T13:58:10.884Z,10.00
2019-04-01T14:00:42.389Z,10.10
2019-04-01T14:03:14.275Z,10.10
2019-04-01T14:05:46.121Z,10.20
2019-04-01T14:08:17.535Z,10.20
2019-04-01T14:10:49.138Z,10.30
2019-04-01T14:13:21.002Z,10.20
2019-04-01T14:15:52.648Z,10.20
2019-04-01T14:18:24.564Z,10.20
2019-04-01T14:20:56.401Z,10.20
2019-04-01T14:23:28.025Z,10.20
2019-04-01T14:25:59.434Z,10.30
2019-04-01T14:28:31.339Z,10.20
2019-04-01T14:31:02.596Z,10.20
2019-04-01T14:33:34.607Z,10.20
2019-04-01T14:36:06.220Z,10.30
2019-04-01T14:38:37.288Z,10.20
2019-04-01T14:41:09.065Z,10.20
2019-04-01T14:43:40.658Z,10.30
2019-04-01T14:46:12.907Z,10.20
2019-04-01T14:48:44.475Z,10.30
2019-04-01T14:51:16.337Z,10.40
2019-04-01T14:53:47.678Z,10.40
2019-04-01T14:56:19.031Z,10.40
2019-04-01T14:58:50.904Z,10.40
2019-04-01T15:01:22.542Z,10.40
2019-04-01T15:03:54.510Z,10.40
2019-04-01T15:06:26.054Z,10.30
2019-04-01T15:08:57.958Z,10.30
2019-04-01T15:11:28.959Z,10.30
2019-04-01T15:14:00.817Z,10.30
2019-04-01T15:16:32.108Z,10.30
2019-04-01T15:19:03.511Z,10.30
2019-04-01T15:21:34.596Z,10.30
2019-04-01T15:24:06.297Z,10.20
2019-04-01T15:26:37.965Z,10.30
2019-04-01T15:29:09.300Z,10.20
2019-04-01T15:31:40.927Z,10.20
2019-04-01T15:34:13.000Z,10.20
2019-04-01T15:36:44.668Z,10.40
2019-04-01T15:39:16.543Z,10.30
2019-04-01T15:41:47.537Z,10.30
2019-04-01T15:44:19.340Z,10.40
2019-04-01T15:46:50.668Z,10.40
2019-04-01T15:49:23.449Z,10.30
2019-04-01T15:51:54.798Z,10.30
2019-04-01T15:54:26.374Z,10.30
2019-04-01T15:56:58.627Z,10.30
2019-04-01T15:59:30.292Z,10.30
2019-04-01T16:02:02.947Z,10.30
2019-04-01T16:04:34.639Z,10.30
2019-04-01T16:07:05.764Z,10.30
2019-04-01T16:09:37.390Z,10.30
2019-04-01T16:12:09.310Z,10.30
2019-04-01T16:14:40.539Z,10.30
2019-04-01T16:17:11.768Z,10.30
2019-04-01T16:19:43.185Z,10.30
2019-04-01T16:22:14.465Z,10.30
2019-04-01T16:24:45.835Z,10.30
2019-04-01T16:27:17.076Z,10.30
2019-04-01T16:29:48.216Z,10.20
2019-04-01T16:32:19.568Z,10.20
2019-04-01T16:34:50.855Z,10.20
2019-04-01T16:37:22.412Z,10.20
2019-04-01T16:39:54.654Z,10.10
2019-04-01T16:42:26.754Z,10.10
2019-04-01T16:44:58.199Z,10.10
2019-04-01T16:47:30.193Z,10.10
2019-04-01T16:50:01.516Z,10.00
2019-04-01T16:52:33.206Z,9.90
2019-04-01T16:55:06.913Z,9.90
2019-04-01T16:57:38.842Z,9.90
2019-04-01T17:00:14.644Z,9.90
2019-04-01T17:02:45.662Z,9.80
2019-04-01T17:05:19.719Z,9.80
2019-04-01T17:07:51.269Z,9.70
2019-04-01T17:10:23.761Z,9.60
2019-04-01T17:12:55.738Z,9.60
2019-04-01T17:15:27.410Z,9.50
2019-04-01T17:17:59.778Z,9.50
2019-04-01T17:20:31.393Z,9.40
2019-04-01T17:23:02.509Z,9.30
2019-04-01T17:25:34.139Z,9.20
2019-04-01T17:28:05.355Z,9.20
2019-04-01T17:30:36.932Z,9.10
2019-04-01T17:33:08.915Z,9.10
2019-04-01T17:35:41.857Z,9.10
2019-04-01T17:38:13.945Z,9.00
2019-04-01T17:40:46.145Z,8.90
2019-04-01T17:43:17.858Z,8.90
2019-04-01T17:45:49.289Z,8.90
2019-04-01T17:48:20.557Z,8.80
2019-04-01T17:50:52.116Z,8.80
2019-04-01T17:53:23.511Z,8.80
2019-04-01T17:55:55.126Z,8.80
2019-04-01T17:58:26.936Z,8.70
2019-04-01T18:01:00.368Z,8.60
2019-04-01T18:03:34.053Z,8.50
2019-04-01T18:06:05.928Z,8.50
2019-04-01T18:08:36.939Z,8.40
2019-04-01T18:11:08.169Z,8.30
2019-04-01T18:13:40.278Z,8.30
2019-04-01T18:16:12.158Z,8.20
2019-04-01T18:18:44.662Z,8.20
2019-04-01T18:21:16.529Z,8.20
2019-04-01T18:23:48.370Z,8.20
2019-04-01T18:26:19.640Z,8.20
2019-04-01T18:28:50.907Z,8.20
2019-04-01T18:31:22.584Z,8.10
2019-04-01T18:33:56.494Z,7.90
2019-04-01T18:36:27.662Z,7.90
2019-04-01T18:38:59.283Z,7.80
2019-04-01T18:41:31.132Z,7.70
2019-04-01T18:44:02.654Z,7.60
2019-04-01T18:46:34.439Z,7.40
2019-04-01T18:49:06.206Z,7.20
2019-04-01T18:51:37.825Z,7.10
2019-04-01T18:54:09.414Z,7.00
2019-04-01T18:56:41.183Z,7.00
2019-04-01T18:59:12.789Z,6.90
2019-04-01T19:01:44.210Z,6.90
2019-04-01T19:04:16.409Z,6.80
2019-04-01T19:06:49.837Z,6.80
2019-04-01T19:09:21.290Z,6.70
2019-04-01T19:12:03.250Z,6.70
2019-04-01T19:14:26.339Z,6.60
2019-04-01T19:16:57.871Z,6.60
2019-04-01T19:19:29.629Z,6.60
2019-04-01T19:22:00.938Z,6.50
2019-04-01T19:24:32.897Z,6.40
2019-04-01T19:27:04.623Z,6.40
2019-04-01T19:29:36.377Z,6.40
2019-04-01T19:32:09.425Z,6.30
2019-04-01T19:34:41.118Z,6.20
2019-04-01T19:37:13.455Z,6.20
2019-04-01T19:39:45.567Z,6.10
2019-04-01T19:42:18.066Z,6.10
2019-04-01T19:44:49.386Z,6.10
2019-04-01T19:47:20.722Z,6.10
2019-04-01T19:49:52.997Z,6.10
2019-04-01T19:52:25.358Z,6.10
2019-04-01T19:54:57.641Z,6.20
2019-04-01T19:57:29.017Z,6.10
2019-04-01T20:00:00.598Z,6.10
2019-04-01T20:02:34.132Z,6.00
2019-04-01T20:05:05.014Z,6.00
2019-04-01T20:07:36.928Z,6.00
2019-04-01T20:10:08.452Z,6.00
2019-04-01T20:12:41.161Z,6.00
2019-04-01T20:15:13.732Z,5.90
2019-04-01T20:17:44.883Z,5.80
2019-04-01T20:20:16.489Z,5.80
2019-04-01T20:22:48.057Z,5.70
2019-04-01T20:25:19.723Z,5.80
2019-04-01T20:27:50.988Z,5.80
2019-04-01T20:30:23.300Z,5.80
2019-04-01T20:32:55.520Z,5.80
2019-04-01T20:35:27.271Z,5.70
2019-04-01T20:37:59.927Z,5.90
2019-04-01T20:40:31.580Z,5.80
2019-04-01T20:43:02.663Z,5.70
2019-04-01T20:45:34.511Z,5.60
2019-04-01T20:48:06.725Z,5.60
2019-04-01T20:50:38.555Z,5.60
2019-04-01T20:53:10.424Z,5.60
2019-04-01T20:55:48.325Z,5.50
2019-04-01T20:58:15.197Z,5.50
2019-04-01T21:00:46.747Z,5.50
2019-04-01T21:03:18.299Z,5.40
2019-04-01T21:05:50.184Z,5.40
2019-04-01T21:08:21.759Z,5.40
2019-04-01T21:10:53.286Z,5.40
2019-04-01T21:13:25.094Z,5.30
2019-04-01T21:15:56.368Z,5.30
2019-04-01T21:18:28.262Z,5.30
2019-04-01T21:20:59.770Z,5.30
2019-04-01T21:23:32.327Z,5.50
2019-04-01T21:26:03.923Z,5.70
2019-04-01T21:28:35.215Z,5.80
2019-04-01T21:31:06.619Z,5.90
2019-04-01T21:33:37.781Z,6.00
2019-04-01T21:36:09.346Z,6.00
2019-04-01T21:38:40.595Z,6.10
2019-04-01T21:41:12.360Z,6.20
2019-04-01T21:43:43.711Z,6.20
2019-04-01T21:46:14.705Z,6.20
2019-04-01T21:48:46.251Z,6.20
2019-04-01T21:51:17.843Z,6.30
2019-04-01T21:53:49.464Z,6.20
2019-04-01T21:56:21.053Z,6.20
2019-04-01T21:58:52.553Z,6.20
2019-04-01T22:01:25.284Z,6.20
2019-04-01T22:03:56.936Z,6.10
2019-04-01T22:06:28.594Z,6.10
2019-04-01T22:09:00.101Z,6.10
2019-04-01T22:11:31.410Z,6.10
2019-04-01T22:14:02.699Z,6.00
2019-04-01T22:16:34.288Z,6.00
2019-04-01T22:19:05.837Z,5.90
2019-04-01T22:21:37.919Z,5.90
2019-04-01T22:24:08.912Z,5.80
2019-04-01T22:26:40.511Z,5.80
2019-04-01T22:29:12.415Z,5.70
2019-04-01T22:31:44.182Z,5.60
2019-04-01T22:34:15.723Z,5.50
2019-04-01T22:36:47.458Z,5.50
2019-04-01T22:39:26.983Z,5.40
2019-04-01T22:41:52.921Z,5.30
2019-04-01T22:44:24.512Z,5.30
2019-04-01T22:46:55.784Z,5.20
2019-04-01T22:49:27.291Z,5.00
2019-04-01T22:51:58.886Z,4.90
2019-04-01T22:54:30.238Z,4.90
2019-04-01T22:57:03.809Z,4.70
2019-04-01T22:59:35.705Z,4.70
2019-04-01T23:02:07.366Z,4.80
2019-04-01T23:04:40.054Z,4.70
2019-04-01T23:07:12.120Z,4.60
2019-04-01T23:09:44.024Z,4.60
2019-04-01T23:12:15.018Z,4.50
2019-04-01T23:14:46.861Z,4.40
2019-04-01T23:17:18.489Z,4.40
2019-04-01T23:19:50.038Z,4.30
2019-04-01T23:22:21.578Z,4.20
2019-04-01T23:24:53.162Z,4.20
2019-04-01T23:27:24.709Z,4.10
2019-04-01T23:29:56.244Z,4.10
2019-04-01T23:32:27.534Z,4.10
2019-04-01T23:34:59.169Z,4.10
2019-04-01T23:37:30.517Z,4.10
2019-04-01T23:40:03.372Z,4.00
2019-04-01T23:42:37.698Z,4.00
2019-04-01T23:45:08.837Z,4.00
2019-04-01T23:47:40.608Z,4.00
2019-04-01T23:50:12.294Z,4.00
2019-04-01T23:52:43.881Z,4.10
2019-04-01T23:55:15.814Z,4.20
2019-04-01T23:57:47.443Z,4.10
